Duhail — C6WF6 — position and weather

sailwx.info

Track history (hours):
 
Tides and Currents Weather Stations Pressure Air Temp Water Temp Dewpoint Dewpoint Depression Visibility Wind Speed Wind Dir Waves Ship Positions

Duhail

Last reported at 2018-May-27 19:33 UTC. Time now 2018-Aug-14 19:26 UTC.
Position N 36°55' E 002°02'.
Warning: this ship's position is months out of date.

Length 315 m; draft 9.5 m.

Type: Tanker. MMSI: 309599000.

Date/timePositionNaut miles runAvg speedWind from/ knotsBaromVisibWave heightAir tempDewpointWater temp
2018-May-27 19:33N 36°55' E 002°02'1016.8
2018-May-27 18:57N 36°53' E 001°49'2017.2
2018-May-27 17:48N 36°49' E 001°25'516.9
2018-May-27 17:30N 36°48' E 001°19'917.0
2018-May-27 17:00N 36°46' E 001°09'816.9
2018-May-27 16:30N 36°44' E 000°59'917.0
2018-May-27 15:58N 36°42' E 000°48'28617.4
2018-May-26 23:31N 36°01' W 005°04'218.3
2018-May-26 23:25N 36°01' W 005°06'818.8
2018-May-26 23:00N 35°60' W 005°15'1020.6
2018-May-26 22:30N 35°58' W 005°28'1019.0
2018-May-26 22:00N 35°55' W 005°39'1216.4
2018-May-26 21:17N 35°53' W 005°54'21215.7
2018-May-26 07:48N 37°29' W 009°50'517.6
2018-May-26 07:30N 37°34' W 009°52'2417.9
2018-May-26 06:08N 37°57' W 009°59'1118.4
2018-May-26 05:30N 38°09' W 010°02'917.6
2018-May-26 05:00N 38°17' W 010°05'917.6
2018-May-26 04:30N 38°26' W 010°07'917.5
2018-May-26 04:00N 38°34' W 010°10'917.7
2018-May-26 03:30N 38°43' W 010°12'917.6
2018-May-26 03:00N 38°52' W 010°13'917.6
2018-May-26 02:30N 39°00' W 010°14'917.7
2018-May-26 01:59N 39°10' W 010°13'917.5
2018-May-26 01:29N 39°19' W 010°14'917.5
2018-May-26 01:00N 39°27' W 010°14'51317.1
2018-May-24 18:58N 47°38' W 006°50'1817.6
2018-May-24 17:58N 47°54' W 006°38'6817.6
2018-May-24 14:08N 48°53' W 005°48'317.1
2018-May-24 13:58N 48°54' W 005°45'917.4
2018-May-24 13:28N 48°58' W 005°33'7917.5
2018-May-24 08:56N 49°40' W 003°50'1018.8
2018-May-24 08:23N 49°46' W 003°37'717.6
2018-May-24 07:59N 49°49' W 003°27'817.5
2018-May-24 07:30N 49°54' W 003°16'917.4
2018-May-24 07:00N 49°57' W 003°04'1019.1
2018-May-24 06:30N 50°00' W 002°49'919.4
2018-May-24 06:00N 50°02' W 002°35'1118.6
2018-May-24 05:26N 50°05' W 002°19'817.5
2018-May-24 05:00N 50°07' W 002°08'917.2
2018-May-24 04:30N 50°10' W 001°55'917.2
2018-May-24 04:00N 50°13' W 001°43'917.2
2018-May-24 03:30N 50°16' W 001°30'917.2
2018-May-24 03:00N 50°18' W 001°17'917.3
2018-May-24 02:30N 50°20' W 001°04'817.0
2018-May-24 02:01N 50°22' W 000°51'917.6
2018-May-24 01:30N 50°23' W 000°37'918.1
2018-May-24 01:00N 50°25' W 000°23'3619.4
2018-May-23 23:09N 50°34' E 000°32'719.6
2018-May-23 22:49N 50°38' E 000°40'2818.9
2018-May-23 21:21N 50°56' E 001°13'717.7
2018-May-23 20:56N 51°01' E 001°21'817.9
2018-May-23 20:31N 51°06' E 001°31'917.8
2018-May-23 20:01N 51°11' E 001°43'917.8
2018-May-23 19:31N 51°18' E 001°51'917.4
2018-May-23 19:01N 51°25' E 002°00'917.1
2018-May-23 18:30N 51°22' E 002°13'816.6
2018-May-23 18:01N 51°22' E 002°26'916.5
2018-May-23 17:29N 51°23' E 002°40'612.5
2018-May-23 17:00N 51°26' E 002°49'714.1
2018-May-23 16:31N 51°25' E 003°00'713.1
2018-May-23 15:59N 51°22' E 003°11'2 0.1
2018-May-22 08:45N 51°21' E 003°13'0 0.5
2018-May-22 08:29N 51°21' E 003°13'1 1.8
2018-May-22 07:59N 51°22' E 003°12'5 9.0
2018-May-22 07:28N 51°24' E 003°05'713.9
2018-May-22 07:00N 51°25' E 002°55'714.1
2018-May-22 06:31N 51°24' E 002°44'612.3
2018-May-22 06:00N 51°22' E 002°35'5 9.5
2018-May-22 05:30N 51°21' E 002°27'3 7.0
2018-May-22 05:00N 51°20' E 002°22'713.9
2018-May-22 04:30N 51°17' E 002°12'816.3
2018-May-22 04:00N 51°13' E 002°01'816.2
2018-May-22 03:30N 51°09' E 001°50'815.9
2018-May-22 03:00N 51°04' E 001°39'815.3
2018-May-22 02:30N 50°59' E 001°31'815.2
2018-May-22 02:00N 50°52' E 001°25'715.1
2018-May-22 01:31N 50°45' E 001°21'714.7
2018-May-22 01:01N 50°39' E 001°16'815.2
2018-May-22 00:29N 50°34' E 001°06'715.2
2018-May-22 00:00N 50°29' E 000°57'815.1
2018-May-21 23:28N 50°27' E 000°44'715.2
2018-May-21 23:00N 50°25' E 000°34'815.3
2018-May-21 22:31N 50°24' E 000°22'815.2
2018-May-21 22:01N 50°22' E 000°11'815.4
2018-May-21 21:30N 50°20' W 000°01'815.3
2018-May-21 20:59N 50°18' W 000°13'715.4
2018-May-21 20:31N 50°16' W 000°24'815.3
2018-May-21 20:01N 50°14' W 000°36'815.3
2018-May-21 19:31N 50°12' W 000°47'815.4
2018-May-21 19:00N 50°10' W 000°59'815.2
2018-May-21 18:30N 50°08' W 001°10'815.2
2018-May-21 18:00N 50°06' W 001°22'815.0
2018-May-21 17:30N 50°04' W 001°33'715.0
2018-May-21 17:00N 50°01' W 001°44'714.9
2018-May-21 16:30N 49°58' W 001°54'714.8
2018-May-21 16:00N 49°56' W 002°05'1215.1
2018-May-21 15:12N 49°53' W 002°24'415.5
2018-May-21 14:58N 49°52' W 002°29'715.5
2018-May-21 14:30N 49°51' W 002°40'815.5
2018-May-21 14:00N 49°50' W 002°52'915.6
2018-May-21 13:28N 49°47' W 003°04'815.7
2018-May-21 12:57N 49°42' W 003°15'715.7
2018-May-21 12:30N 49°39' W 003°24'815.7
2018-May-21 12:00N 49°35' W 003°35'815.7
2018-May-21 11:30N 49°31' W 003°45'815.8
2018-May-21 11:00N 49°27' W 003°56'3816.0
2018-May-21 08:38N 49°07' W 004°45'2916.1
2018-May-21 06:49N 48°53' W 005°24'515.8
2018-May-21 06:30N 48°50' W 005°30'2815.5
2018-May-21 04:43N 48°27' W 005°54'515.3
2018-May-21 04:25N 48°23' W 005°57'615.4
2018-May-21 04:01N 48°18' W 006°02'815.5
2018-May-21 03:31N 48°11' W 006°08'815.8
2018-May-21 03:01N 48°04' W 006°14'815.8
2018-May-21 02:31N 47°57' W 006°19'815.4
2018-May-21 02:00N 47°50' W 006°24'815.7
2018-May-21 01:31N 47°43' W 006°29'815.7
2018-May-21 01:01N 47°36' W 006°34'815.1
2018-May-21 00:30N 47°29' W 006°39'815.6
2018-May-21 00:01N 47°22' W 006°43'815.2
2018-May-20 23:31N 47°15' W 006°48'815.5
2018-May-20 23:01N 47°08' W 006°54'815.5
2018-May-20 22:30N 47°02' W 006°60'815.3
2018-May-20 22:01N 46°56' W 007°06'815.5
2018-May-20 21:30N 46°49' W 007°12'815.9
2018-May-20 21:01N 46°42' W 007°18'44014.6
2018-May-19 14:55N 39°37' W 009°57'614.7
2018-May-19 14:30N 39°31' W 009°57'714.6
2018-May-19 14:00N 39°24' W 009°57'815.3
2018-May-19 13:30N 39°17' W 009°57'815.0
2018-May-19 13:00N 39°09' W 009°57'815.1
2018-May-19 12:30N 39°01' W 009°57'815.1
2018-May-19 12:00N 38°54' W 009°57'715.0
2018-May-19 11:31N 38°46' W 009°57'714.6
2018-May-19 11:00N 38°39' W 009°56'714.9
2018-May-19 10:30N 38°32' W 009°54'815.2
2018-May-19 10:00N 38°24' W 009°51'815.4
2018-May-19 09:30N 38°17' W 009°49'815.7
2018-May-19 09:00N 38°09' W 009°47'815.3
2018-May-19 08:30N 38°02' W 009°44'1315.3
2018-May-19 07:40N 37°50' W 009°40'315.1
2018-May-19 07:29N 37°47' W 009°39'815.0
2018-May-19 06:59N 37°40' W 009°37'1116.0
2018-May-19 06:16N 37°28' W 009°33'5914.2
2018-May-19 02:07N 36°37' W 008°58'214.9
2018-May-19 01:57N 36°36' W 008°55'2314.9
2018-May-19 00:27N 36°32' W 008°27'815.0
2018-May-18 23:55N 36°30' W 008°18'715.2
2018-May-18 23:29N 36°28' W 008°10'12614.9
2018-May-18 15:00N 35°58' W 005°38'714.8
2018-May-18 14:30N 35°59' W 005°29'714.0
2018-May-18 14:00N 36°01' W 005°21'714.2
2018-May-18 13:30N 36°03' W 005°12'  
Track history (hours):
 
Tides and Currents Weather Stations Pressure Air Temp Water Temp Dewpoint Dewpoint Depression Visibility Wind Speed Wind Dir Waves Ship Positions

Duhail

Last reported at 2018-May-27 19:33 UTC. Time now 2018-Aug-14 19:26 UTC.
Position N 36°55' E 002°02'.
Warning: this ship's position is months out of date.

Length 315 m; draft 9.5 m.

Type: Tanker. MMSI: 309599000.

Date/timePositionNaut miles runAvg speedWind from/ knotsBaromVisibWave heightAir tempDewpointWater temp
2018-May-27 19:33N 36°55' E 002°02'1016.8
2018-May-27 18:57N 36°53' E 001°49'2017.2
2018-May-27 17:48N 36°49' E 001°25'516.9
2018-May-27 17:30N 36°48' E 001°19'917.0
2018-May-27 17:00N 36°46' E 001°09'816.9
2018-May-27 16:30N 36°44' E 000°59'917.0
2018-May-27 15:58N 36°42' E 000°48'28617.4
2018-May-26 23:31N 36°01' W 005°04'218.3
2018-May-26 23:25N 36°01' W 005°06'818.8
2018-May-26 23:00N 35°60' W 005°15'1020.6
2018-May-26 22:30N 35°58' W 005°28'1019.0
2018-May-26 22:00N 35°55' W 005°39'1216.4
2018-May-26 21:17N 35°53' W 005°54'21215.7
2018-May-26 07:48N 37°29' W 009°50'517.6
2018-May-26 07:30N 37°34' W 009°52'2417.9
2018-May-26 06:08N 37°57' W 009°59'1118.4
2018-May-26 05:30N 38°09' W 010°02'917.6
2018-May-26 05:00N 38°17' W 010°05'917.6
2018-May-26 04:30N 38°26' W 010°07'917.5
2018-May-26 04:00N 38°34' W 010°10'917.7
2018-May-26 03:30N 38°43' W 010°12'917.6
2018-May-26 03:00N 38°52' W 010°13'917.6
2018-May-26 02:30N 39°00' W 010°14'917.7
2018-May-26 01:59N 39°10' W 010°13'917.5
2018-May-26 01:29N 39°19' W 010°14'917.5
2018-May-26 01:00N 39°27' W 010°14'51317.1
2018-May-24 18:58N 47°38' W 006°50'1817.6
2018-May-24 17:58N 47°54' W 006°38'6817.6
2018-May-24 14:08N 48°53' W 005°48'317.1
2018-May-24 13:58N 48°54' W 005°45'917.4
2018-May-24 13:28N 48°58' W 005°33'7917.5
2018-May-24 08:56N 49°40' W 003°50'1018.8
2018-May-24 08:23N 49°46' W 003°37'717.6
2018-May-24 07:59N 49°49' W 003°27'817.5
2018-May-24 07:30N 49°54' W 003°16'917.4
2018-May-24 07:00N 49°57' W 003°04'1019.1
2018-May-24 06:30N 50°00' W 002°49'919.4
2018-May-24 06:00N 50°02' W 002°35'1118.6
2018-May-24 05:26N 50°05' W 002°19'817.5
2018-May-24 05:00N 50°07' W 002°08'917.2
2018-May-24 04:30N 50°10' W 001°55'917.2
2018-May-24 04:00N 50°13' W 001°43'917.2
2018-May-24 03:30N 50°16' W 001°30'917.2
2018-May-24 03:00N 50°18' W 001°17'917.3
2018-May-24 02:30N 50°20' W 001°04'817.0
2018-May-24 02:01N 50°22' W 000°51'917.6
2018-May-24 01:30N 50°23' W 000°37'918.1
2018-May-24 01:00N 50°25' W 000°23'3619.4
2018-May-23 23:09N 50°34' E 000°32'719.6
2018-May-23 22:49N 50°38' E 000°40'2818.9
2018-May-23 21:21N 50°56' E 001°13'717.7
2018-May-23 20:56N 51°01' E 001°21'817.9
2018-May-23 20:31N 51°06' E 001°31'917.8
2018-May-23 20:01N 51°11' E 001°43'917.8
2018-May-23 19:31N 51°18' E 001°51'917.4
2018-May-23 19:01N 51°25' E 002°00'917.1
2018-May-23 18:30N 51°22' E 002°13'816.6
2018-May-23 18:01N 51°22' E 002°26'916.5
2018-May-23 17:29N 51°23' E 002°40'612.5
2018-May-23 17:00N 51°26' E 002°49'714.1
2018-May-23 16:31N 51°25' E 003°00'713.1
2018-May-23 15:59N 51°22' E 003°11'2 0.1
2018-May-22 08:45N 51°21' E 003°13'0 0.5
2018-May-22 08:29N 51°21' E 003°13'1 1.8
2018-May-22 07:59N 51°22' E 003°12'5 9.0
2018-May-22 07:28N 51°24' E 003°05'713.9
2018-May-22 07:00N 51°25' E 002°55'714.1
2018-May-22 06:31N 51°24' E 002°44'612.3
2018-May-22 06:00N 51°22' E 002°35'5 9.5
2018-May-22 05:30N 51°21' E 002°27'3 7.0
2018-May-22 05:00N 51°20' E 002°22'713.9
2018-May-22 04:30N 51°17' E 002°12'816.3
2018-May-22 04:00N 51°13' E 002°01'816.2
2018-May-22 03:30N 51°09' E 001°50'815.9
2018-May-22 03:00N 51°04' E 001°39'815.3
2018-May-22 02:30N 50°59' E 001°31'815.2
2018-May-22 02:00N 50°52' E 001°25'715.1
2018-May-22 01:31N 50°45' E 001°21'714.7
2018-May-22 01:01N 50°39' E 001°16'815.2
2018-May-22 00:29N 50°34' E 001°06'715.2
2018-May-22 00:00N 50°29' E 000°57'815.1
2018-May-21 23:28N 50°27' E 000°44'715.2
2018-May-21 23:00N 50°25' E 000°34'815.3
2018-May-21 22:31N 50°24' E 000°22'815.2
2018-May-21 22:01N 50°22' E 000°11'815.4
2018-May-21 21:30N 50°20' W 000°01'815.3
2018-May-21 20:59N 50°18' W 000°13'715.4
2018-May-21 20:31N 50°16' W 000°24'815.3
2018-May-21 20:01N 50°14' W 000°36'815.3
2018-May-21 19:31N 50°12' W 000°47'815.4
2018-May-21 19:00N 50°10' W 000°59'815.2
2018-May-21 18:30N 50°08' W 001°10'815.2
2018-May-21 18:00N 50°06' W 001°22'815.0
2018-May-21 17:30N 50°04' W 001°33'715.0
2018-May-21 17:00N 50°01' W 001°44'714.9
2018-May-21 16:30N 49°58' W 001°54'714.8
2018-May-21 16:00N 49°56' W 002°05'1215.1
2018-May-21 15:12N 49°53' W 002°24'415.5
2018-May-21 14:58N 49°52' W 002°29'715.5
2018-May-21 14:30N 49°51' W 002°40'815.5
2018-May-21 14:00N 49°50' W 002°52'915.6
2018-May-21 13:28N 49°47' W 003°04'815.7
2018-May-21 12:57N 49°42' W 003°15'715.7
2018-May-21 12:30N 49°39' W 003°24'815.7
2018-May-21 12:00N 49°35' W 003°35'815.7
2018-May-21 11:30N 49°31' W 003°45'815.8
2018-May-21 11:00N 49°27' W 003°56'3816.0
2018-May-21 08:38N 49°07' W 004°45'2916.1
2018-May-21 06:49N 48°53' W 005°24'515.8
2018-May-21 06:30N 48°50' W 005°30'2815.5
2018-May-21 04:43N 48°27' W 005°54'515.3
2018-May-21 04:25N 48°23' W 005°57'615.4
2018-May-21 04:01N 48°18' W 006°02'815.5
2018-May-21 03:31N 48°11' W 006°08'815.8
2018-May-21 03:01N 48°04' W 006°14'815.8
2018-May-21 02:31N 47°57' W 006°19'815.4
2018-May-21 02:00N 47°50' W 006°24'815.7
2018-May-21 01:31N 47°43' W 006°29'815.7
2018-May-21 01:01N 47°36' W 006°34'815.1
2018-May-21 00:30N 47°29' W 006°39'815.6
2018-May-21 00:01N 47°22' W 006°43'815.2
2018-May-20 23:31N 47°15' W 006°48'815.5
2018-May-20 23:01N 47°08' W 006°54'815.5
2018-May-20 22:30N 47°02' W 006°60'815.3
2018-May-20 22:01N 46°56' W 007°06'815.5
2018-May-20 21:30N 46°49' W 007°12'815.9
2018-May-20 21:01N 46°42' W 007°18'44014.6
2018-May-19 14:55N 39°37' W 009°57'614.7
2018-May-19 14:30N 39°31' W 009°57'714.6
2018-May-19 14:00N 39°24' W 009°57'815.3
2018-May-19 13:30N 39°17' W 009°57'815.0
2018-May-19 13:00N 39°09' W 009°57'815.1
2018-May-19 12:30N 39°01' W 009°57'815.1
2018-May-19 12:00N 38°54' W 009°57'715.0
2018-May-19 11:31N 38°46' W 009°57'714.6
2018-May-19 11:00N 38°39' W 009°56'714.9
2018-May-19 10:30N 38°32' W 009°54'815.2
2018-May-19 10:00N 38°24' W 009°51'815.4
2018-May-19 09:30N 38°17' W 009°49'815.7
2018-May-19 09:00N 38°09' W 009°47'815.3
2018-May-19 08:30N 38°02' W 009°44'1315.3
2018-May-19 07:40N 37°50' W 009°40'315.1
2018-May-19 07:29N 37°47' W 009°39'815.0
2018-May-19 06:59N 37°40' W 009°37'1116.0
2018-May-19 06:16N 37°28' W 009°33'5914.2
2018-May-19 02:07N 36°37' W 008°58'214.9
2018-May-19 01:57N 36°36' W 008°55'2314.9
2018-May-19 00:27N 36°32' W 008°27'815.0
2018-May-18 23:55N 36°30' W 008°18'715.2
2018-May-18 23:29N 36°28' W 008°10'12614.9
2018-May-18 15:00N 35°58' W 005°38'714.8
2018-May-18 14:30N 35°59' W 005°29'714.0
2018-May-18 14:00N 36°01' W 005°21'714.2
2018-May-18 13:30N 36°03' W 005°12'  

Dump ship's entire track history